sensor_id;sensor_type;location;lat;lon;timestamp;P1;durP1;ratioP1;P2;durP2;ratioP2
23868;SDS011;12115;47.128;15.422;2023-03-05T00:01:24;13.38;;;5.50;;
23868;SDS011;12115;47.128;15.422;2023-03-05T00:03:54;11.60;;;5.70;;
23868;SDS011;12115;47.128;15.422;2023-03-05T00:06:23;13.88;;;5.97;;
23868;SDS011;12115;47.128;15.422;2023-03-05T00:08:53;12.23;;;6.37;;
23868;SDS011;12115;47.128;15.422;2023-03-05T00:11:22;10.50;;;6.18;;
23868;SDS011;12115;47.128;15.422;2023-03-05T00:13:51;12.18;;;6.78;;
23868;SDS011;12115;47.128;15.422;2023-03-05T00:16:18;12.18;;;7.13;;
23868;SDS011;12115;47.128;15.422;2023-03-05T00:18:47;14.90;;;7.60;;
23868;SDS011;12115;47.128;15.422;2023-03-05T00:21:22;17.30;;;8.52;;
23868;SDS011;12115;47.128;15.422;2023-03-05T00:23:56;17.55;;;9.25;;
23868;SDS011;12115;47.128;15.422;2023-03-05T00:26:24;18.77;;;9.13;;
23868;SDS011;12115;47.128;15.422;2023-03-05T00:28:56;11.77;;;6.70;;
23868;SDS011;12115;47.128;15.422;2023-03-05T00:31:28;13.25;;;6.88;;
23868;SDS011;12115;47.128;15.422;2023-03-05T00:33:58;14.32;;;7.00;;
23868;SDS011;12115;47.128;15.422;2023-03-05T00:36:28;19.70;;;7.50;;
23868;SDS011;12115;47.128;15.422;2023-03-05T00:38:55;14.02;;;7.93;;
23868;SDS011;12115;47.128;15.422;2023-03-05T00:41:24;16.13;;;8.77;;
23868;SDS011;12115;47.128;15.422;2023-03-05T00:43:52;14.45;;;8.55;;
23868;SDS011;12115;47.128;15.422;2023-03-05T00:46:20;14.18;;;8.60;;
23868;SDS011;12115;47.128;15.422;2023-03-05T00:48:48;12.88;;;9.15;;
23868;SDS011;12115;47.128;15.422;2023-03-05T00:51:17;14.90;;;10.13;;
23868;SDS011;12115;47.128;15.422;2023-03-05T00:53:44;16.00;;;9.57;;
23868;SDS011;12115;47.128;15.422;2023-03-05T00:56:12;16.73;;;10.18;;
23868;SDS011;12115;47.128;15.422;2023-03-05T00:58:39;16.63;;;10.20;;
23868;SDS011;12115;47.128;15.422;2023-03-05T01:01:07;19.95;;;11.15;;
23868;SDS011;12115;47.128;15.422;2023-03-05T01:03:34;15.90;;;10.38;;
23868;SDS011;12115;47.128;15.422;2023-03-05T01:06:06;18.20;;;11.35;;
23868;SDS011;12115;47.128;15.422;2023-03-05T01:08:36;16.35;;;10.32;;
23868;SDS011;12115;47.128;15.422;2023-03-05T01:11:04;17.73;;;10.80;;
23868;SDS011;12115;47.128;15.422;2023-03-05T01:13:34;16.38;;;10.35;;
23868;SDS011;12115;47.128;15.422;2023-03-05T01:16:02;15.48;;;10.05;;
23868;SDS011;12115;47.128;15.422;2023-03-05T01:18:30;21.42;;;11.98;;
23868;SDS011;12115;47.128;15.422;2023-03-05T01:20:57;18.33;;;9.85;;
23868;SDS011;12115;47.128;15.422;2023-03-05T01:23:25;17.95;;;9.80;;
23868;SDS011;12115;47.128;15.422;2023-03-05T01:25:53;20.58;;;10.93;;
23868;SDS011;12115;47.128;15.422;2023-03-05T01:28:21;17.38;;;9.85;;
23868;SDS011;12115;47.128;15.422;2023-03-05T01:30:49;17.90;;;10.40;;
23868;SDS011;12115;47.128;15.422;2023-03-05T01:33:17;18.95;;;12.02;;
23868;SDS011;12115;47.128;15.422;2023-03-05T01:35:45;20.67;;;10.95;;
23868;SDS011;12115;47.128;15.422;2023-03-05T01:38:13;18.13;;;11.43;;
23868;SDS011;12115;47.128;15.422;2023-03-05T01:40:41;20.58;;;11.35;;
23868;SDS011;12115;47.128;15.422;2023-03-05T01:45:38;20.40;;;12.20;;
23868;SDS011;12115;47.128;15.422;2023-03-05T01:48:26;14.52;;;9.48;;
23868;SDS011;12115;47.128;15.422;2023-03-05T01:50:53;18.10;;;11.45;;
23868;SDS011;12115;47.128;15.422;2023-03-05T01:53:21;18.55;;;11.20;;
23868;SDS011;12115;47.128;15.422;2023-03-05T01:55:48;17.63;;;11.90;;
23868;SDS011;12115;47.128;15.422;2023-03-05T01:58:16;20.00;;;12.07;;
23868;SDS011;12115;47.128;15.422;2023-03-05T02:00:47;21.90;;;13.23;;
23868;SDS011;12115;47.128;15.422;2023-03-05T02:03:16;19.15;;;12.20;;
23868;SDS011;12115;47.128;15.422;2023-03-05T02:05:45;18.52;;;12.32;;
23868;SDS011;12115;47.128;15.422;2023-03-05T02:08:14;19.90;;;12.52;;
23868;SDS011;12115;47.128;15.422;2023-03-05T02:10:45;18.65;;;11.48;;
23868;SDS011;12115;47.128;15.422;2023-03-05T02:13:19;19.10;;;12.30;;
23868;SDS011;12115;47.128;15.422;2023-03-05T02:15:52;17.00;;;11.25;;
23868;SDS011;12115;47.128;15.422;2023-03-05T02:18:21;22.60;;;14.00;;
23868;SDS011;12115;47.128;15.422;2023-03-05T02:20:50;23.13;;;14.70;;
23868;SDS011;12115;47.128;15.422;2023-03-05T02:23:18;20.10;;;13.65;;
23868;SDS011;12115;47.128;15.422;2023-03-05T02:25:47;21.63;;;13.35;;
23868;SDS011;12115;47.128;15.422;2023-03-05T02:29:00;21.98;;;13.70;;
23868;SDS011;12115;47.128;15.422;2023-03-05T02:31:09;22.42;;;14.00;;
23868;SDS011;12115;47.128;15.422;2023-03-05T02:33:41;24.58;;;12.30;;
23868;SDS011;12115;47.128;15.422;2023-03-05T02:36:09;21.48;;;13.20;;
23868;SDS011;12115;47.128;15.422;2023-03-05T02:38:38;20.75;;;12.52;;
23868;SDS011;12115;47.128;15.422;2023-03-05T02:41:07;22.45;;;14.02;;
23868;SDS011;12115;47.128;15.422;2023-03-05T02:43:35;21.88;;;13.45;;
23868;SDS011;12115;47.128;15.422;2023-03-05T02:46:04;23.23;;;13.02;;
23868;SDS011;12115;47.128;15.422;2023-03-05T02:48:32;20.42;;;13.13;;
23868;SDS011;12115;47.128;15.422;2023-03-05T02:51:00;20.40;;;13.20;;
23868;SDS011;12115;47.128;15.422;2023-03-05T02:53:29;21.20;;;13.35;;
23868;SDS011;12115;47.128;15.422;2023-03-05T02:55:57;22.90;;;12.98;;
23868;SDS011;12115;47.128;15.422;2023-03-05T02:58:25;20.27;;;11.93;;
23868;SDS011;12115;47.128;15.422;2023-03-05T03:00:53;20.48;;;12.43;;
23868;SDS011;12115;47.128;15.422;2023-03-05T03:03:20;17.98;;;11.93;;
23868;SDS011;12115;47.128;15.422;2023-03-05T03:05:47;20.13;;;13.20;;
23868;SDS011;12115;47.128;15.422;2023-03-05T03:08:15;23.30;;;13.63;;
23868;SDS011;12115;47.128;15.422;2023-03-05T03:10:43;22.58;;;12.45;;
23868;SDS011;12115;47.128;15.422;2023-03-05T03:13:10;23.60;;;13.48;;
23868;SDS011;12115;47.128;15.422;2023-03-05T03:15:37;25.20;;;15.07;;
23868;SDS011;12115;47.128;15.422;2023-03-05T03:18:06;22.92;;;14.02;;
23868;SDS011;12115;47.128;15.422;2023-03-05T03:20:36;20.63;;;12.13;;
23868;SDS011;12115;47.128;15.422;2023-03-05T03:23:04;24.23;;;14.45;;
23868;SDS011;12115;47.128;15.422;2023-03-05T03:25:32;21.38;;;14.43;;
23868;SDS011;12115;47.128;15.422;2023-03-05T03:28:00;22.92;;;13.77;;
23868;SDS011;12115;47.128;15.422;2023-03-05T03:30:27;24.67;;;15.07;;
23868;SDS011;12115;47.128;15.422;2023-03-05T03:32:55;21.05;;;12.82;;
23868;SDS011;12115;47.128;15.422;2023-03-05T03:35:22;27.80;;;16.52;;
23868;SDS011;12115;47.128;15.422;2023-03-05T03:37:49;23.20;;;14.60;;
23868;SDS011;12115;47.128;15.422;2023-03-05T03:40:17;23.58;;;13.95;;
23868;SDS011;12115;47.128;15.422;2023-03-05T03:42:44;22.38;;;13.73;;
23868;SDS011;12115;47.128;15.422;2023-03-05T03:45:12;24.52;;;15.70;;
23868;SDS011;12115;47.128;15.422;2023-03-05T03:47:39;29.10;;;15.38;;
23868;SDS011;12115;47.128;15.422;2023-03-05T03:50:07;21.20;;;13.07;;
23868;SDS011;12115;47.128;15.422;2023-03-05T03:52:34;24.17;;;14.50;;
23868;SDS011;12115;47.128;15.422;2023-03-05T03:55:02;22.75;;;14.75;;
23868;SDS011;12115;47.128;15.422;2023-03-05T03:57:29;22.80;;;12.65;;
23868;SDS011;12115;47.128;15.422;2023-03-05T03:59:59;23.70;;;14.63;;
23868;SDS011;12115;47.128;15.422;2023-03-05T04:02:26;22.48;;;13.95;;
23868;SDS011;12115;47.128;15.422;2023-03-05T04:04:54;20.23;;;11.82;;
23868;SDS011;12115;47.128;15.422;2023-03-05T04:07:21;24.00;;;13.82;;
23868;SDS011;12115;47.128;15.422;2023-03-05T04:09:50;24.48;;;14.25;;
23868;SDS011;12115;47.128;15.422;2023-03-05T04:12:18;20.23;;;12.45;;
23868;SDS011;12115;47.128;15.422;2023-03-05T04:14:46;20.63;;;12.95;;
23868;SDS011;12115;47.128;15.422;2023-03-05T04:17:14;18.98;;;11.43;;
23868;SDS011;12115;47.128;15.422;2023-03-05T04:19:42;20.27;;;12.82;;
23868;SDS011;12115;47.128;15.422;2023-03-05T04:22:10;19.85;;;12.52;;
23868;SDS011;12115;47.128;15.422;2023-03-05T04:24:38;17.85;;;11.90;;
23868;SDS011;12115;47.128;15.422;2023-03-05T04:27:06;24.50;;;15.18;;
23868;SDS011;12115;47.128;15.422;2023-03-05T04:29:33;23.30;;;13.05;;
23868;SDS011;12115;47.128;15.422;2023-03-05T04:32:01;15.52;;;11.25;;
23868;SDS011;12115;47.128;15.422;2023-03-05T04:34:29;19.15;;;12.02;;
23868;SDS011;12115;47.128;15.422;2023-03-05T04:36:57;24.13;;;13.50;;
23868;SDS011;12115;47.128;15.422;2023-03-05T04:39:24;22.55;;;13.18;;
23868;SDS011;12115;47.128;15.422;2023-03-05T04:41:51;26.52;;;16.50;;
23868;SDS011;12115;47.128;15.422;2023-03-05T04:44:19;27.50;;;14.80;;
23868;SDS011;12115;47.128;15.422;2023-03-05T04:46:48;25.38;;;14.57;;
23868;SDS011;12115;47.128;15.422;2023-03-05T04:49:16;22.13;;;13.88;;
23868;SDS011;12115;47.128;15.422;2023-03-05T04:51:43;25.50;;;14.25;;
23868;SDS011;12115;47.128;15.422;2023-03-05T04:54:10;24.50;;;13.40;;
23868;SDS011;12115;47.128;15.422;2023-03-05T04:56:38;20.20;;;12.48;;
23868;SDS011;12115;47.128;15.422;2023-03-05T04:59:05;23.38;;;13.45;;
23868;SDS011;12115;47.128;15.422;2023-03-05T05:01:32;22.73;;;14.95;;
23868;SDS011;12115;47.128;15.422;2023-03-05T05:04:01;16.30;;;10.50;;
23868;SDS011;12115;47.128;15.422;2023-03-05T05:06:28;27.27;;;15.65;;
23868;SDS011;12115;47.128;15.422;2023-03-05T05:08:56;23.83;;;14.40;;
23868;SDS011;12115;47.128;15.422;2023-03-05T05:11:23;22.73;;;12.25;;
23868;SDS011;12115;47.128;15.422;2023-03-05T05:13:51;22.55;;;13.68;;
23868;SDS011;12115;47.128;15.422;2023-03-05T05:16:18;21.80;;;12.65;;
23868;SDS011;12115;47.128;15.422;2023-03-05T05:18:46;17.08;;;10.63;;
23868;SDS011;12115;47.128;15.422;2023-03-05T05:21:13;22.20;;;12.85;;
23868;SDS011;12115;47.128;15.422;2023-03-05T05:23:41;21.17;;;12.32;;
23868;SDS011;12115;47.128;15.422;2023-03-05T05:26:08;20.13;;;13.02;;
23868;SDS011;12115;47.128;15.422;2023-03-05T05:28:40;22.35;;;12.25;;
23868;SDS011;12115;47.128;15.422;2023-03-05T05:31:10;20.05;;;11.85;;
23868;SDS011;12115;47.128;15.422;2023-03-05T05:33:39;27.25;;;17.25;;
23868;SDS011;12115;47.128;15.422;2023-03-05T05:36:07;26.65;;;14.10;;
23868;SDS011;12115;47.128;15.422;2023-03-05T05:38:37;22.20;;;14.10;;
23868;SDS011;12115;47.128;15.422;2023-03-05T05:41:06;22.25;;;14.25;;
23868;SDS011;12115;47.128;15.422;2023-03-05T05:43:36;25.08;;;15.48;;
23868;SDS011;12115;47.128;15.422;2023-03-05T05:46:05;17.60;;;10.63;;
23868;SDS011;12115;47.128;15.422;2023-03-05T05:48:34;16.90;;;10.75;;
23868;SDS011;12115;47.128;15.422;2023-03-05T05:51:06;17.20;;;11.52;;
23868;SDS011;12115;47.128;15.422;2023-03-05T05:53:36;22.80;;;11.65;;
23868;SDS011;12115;47.128;15.422;2023-03-05T05:56:05;25.17;;;15.25;;
23868;SDS011;12115;47.128;15.422;2023-03-05T05:58:34;18.52;;;11.48;;
23868;SDS011;12115;47.128;15.422;2023-03-05T06:01:10;22.02;;;13.02;;
23868;SDS011;12115;47.128;15.422;2023-03-05T06:03:39;16.73;;;11.15;;
23868;SDS011;12115;47.128;15.422;2023-03-05T06:06:08;25.10;;;13.50;;
23868;SDS011;12115;47.128;15.422;2023-03-05T06:08:38;24.58;;;15.57;;
23868;SDS011;12115;47.128;15.422;2023-03-05T06:11:05;28.77;;;17.20;;
23868;SDS011;12115;47.128;15.422;2023-03-05T06:13:33;28.95;;;15.32;;
23868;SDS011;12115;47.128;15.422;2023-03-05T06:16:02;26.98;;;17.27;;
23868;SDS011;12115;47.128;15.422;2023-03-05T06:18:33;27.42;;;16.23;;
23868;SDS011;12115;47.128;15.422;2023-03-05T06:21:05;17.58;;;11.13;;
23868;SDS011;12115;47.128;15.422;2023-03-05T06:23:35;20.00;;;12.77;;
23868;SDS011;12115;47.128;15.422;2023-03-05T06:26:04;20.20;;;12.45;;
23868;SDS011;12115;47.128;15.422;2023-03-05T06:28:32;22.60;;;13.35;;
23868;SDS011;12115;47.128;15.422;2023-03-05T06:31:07;26.00;;;14.45;;
23868;SDS011;12115;47.128;15.422;2023-03-05T06:33:38;17.33;;;11.38;;
23868;SDS011;12115;47.128;15.422;2023-03-05T06:36:07;17.65;;;11.38;;
23868;SDS011;12115;47.128;15.422;2023-03-05T06:38:36;25.57;;;15.00;;
23868;SDS011;12115;47.128;15.422;2023-03-05T06:41:05;27.77;;;17.23;;
23868;SDS011;12115;47.128;15.422;2023-03-05T06:43:38;24.63;;;13.82;;
23868;SDS011;12115;47.128;15.422;2023-03-05T06:46:10;29.52;;;18.27;;
23868;SDS011;12115;47.128;15.422;2023-03-05T06:48:43;30.58;;;19.10;;
23868;SDS011;12115;47.128;15.422;2023-03-05T06:51:12;27.02;;;15.95;;
23868;SDS011;12115;47.128;15.422;2023-03-05T06:53:41;31.50;;;19.58;;
23868;SDS011;12115;47.128;15.422;2023-03-05T06:56:09;26.70;;;17.08;;
23868;SDS011;12115;47.128;15.422;2023-03-05T06:58:39;35.83;;;18.63;;
23868;SDS011;12115;47.128;15.422;2023-03-05T07:01:07;24.35;;;14.05;;
23868;SDS011;12115;47.128;15.422;2023-03-05T07:03:35;26.08;;;15.30;;
23868;SDS011;12115;47.128;15.422;2023-03-05T07:06:07;23.40;;;14.43;;
23868;SDS011;12115;47.128;15.422;2023-03-05T07:08:36;23.63;;;15.05;;
23868;SDS011;12115;47.128;15.422;2023-03-05T07:11:15;26.77;;;17.17;;
23868;SDS011;12115;47.128;15.422;2023-03-05T07:13:44;26.60;;;13.95;;
23868;SDS011;12115;47.128;15.422;2023-03-05T07:16:16;20.25;;;13.20;;
23868;SDS011;12115;47.128;15.422;2023-03-05T07:18:48;24.13;;;14.45;;
23868;SDS011;12115;47.128;15.422;2023-03-05T07:21:17;27.33;;;16.77;;
23868;SDS011;12115;47.128;15.422;2023-03-05T07:23:46;34.05;;;17.42;;
23868;SDS011;12115;47.128;15.422;2023-03-05T07:26:14;34.45;;;19.17;;
23868;SDS011;12115;47.128;15.422;2023-03-05T07:28:42;30.52;;;17.92;;
23868;SDS011;12115;47.128;15.422;2023-03-05T07:31:16;28.77;;;17.38;;
23868;SDS011;12115;47.128;15.422;2023-03-05T07:33:46;30.23;;;17.58;;
23868;SDS011;12115;47.128;15.422;2023-03-05T07:36:18;27.45;;;16.80;;
23868;SDS011;12115;47.128;15.422;2023-03-05T07:38:47;24.00;;;16.00;;
23868;SDS011;12115;47.128;15.422;2023-03-05T07:41:16;29.23;;;17.63;;
23868;SDS011;12115;47.128;15.422;2023-03-05T07:43:50;21.48;;;15.55;;
23868;SDS011;12115;47.128;15.422;2023-03-05T07:46:20;25.05;;;16.73;;
23868;SDS011;12115;47.128;15.422;2023-03-05T07:48:50;24.30;;;15.88;;
23868;SDS011;12115;47.128;15.422;2023-03-05T07:51:21;22.45;;;14.57;;
23868;SDS011;12115;47.128;15.422;2023-03-05T07:53:50;22.25;;;15.07;;
23868;SDS011;12115;47.128;15.422;2023-03-05T07:56:29;22.65;;;15.30;;
23868;SDS011;12115;47.128;15.422;2023-03-05T07:59:05;16.15;;;13.15;;
23868;SDS011;12115;47.128;15.422;2023-03-05T08:01:35;17.42;;;13.32;;
23868;SDS011;12115;47.128;15.422;2023-03-05T08:04:03;17.83;;;13.68;;
23868;SDS011;12115;47.128;15.422;2023-03-05T08:06:39;19.42;;;14.15;;
23868;SDS011;12115;47.128;15.422;2023-03-05T08:09:07;18.92;;;14.57;;
23868;SDS011;12115;47.128;15.422;2023-03-05T08:11:35;22.00;;;14.93;;
23868;SDS011;12115;47.128;15.422;2023-03-05T08:14:02;17.33;;;14.57;;
23868;SDS011;12115;47.128;15.422;2023-03-05T08:16:30;19.15;;;14.70;;
23868;SDS011;12115;47.128;15.422;2023-03-05T08:18:58;20.13;;;13.93;;
23868;SDS011;12115;47.128;15.422;2023-03-05T08:21:30;18.40;;;13.80;;
23868;SDS011;12115;47.128;15.422;2023-03-05T08:24:00;18.98;;;14.95;;
23868;SDS011;12115;47.128;15.422;2023-03-05T08:26:30;22.55;;;14.93;;
23868;SDS011;12115;47.128;15.422;2023-03-05T08:31:29;19.15;;;14.27;;
23868;SDS011;12115;47.128;15.422;2023-03-05T08:33:58;16.83;;;14.13;;
23868;SDS011;12115;47.128;15.422;2023-03-05T08:36:27;19.15;;;14.95;;
23868;SDS011;12115;47.128;15.422;2023-03-05T08:38:55;19.55;;;15.02;;
23868;SDS011;12115;47.128;15.422;2023-03-05T08:41:24;20.48;;;14.68;;
23868;SDS011;12115;47.128;15.422;2023-03-05T08:43:52;21.58;;;15.50;;
23868;SDS011;12115;47.128;15.422;2023-03-05T08:46:19;19.38;;;14.43;;
23868;SDS011;12115;47.128;15.422;2023-03-05T08:48:47;18.75;;;13.80;;
23868;SDS011;12115;47.128;15.422;2023-03-05T08:51:16;20.15;;;14.75;;
23868;SDS011;12115;47.128;15.422;2023-03-05T08:53:48;17.80;;;13.63;;
23868;SDS011;12115;47.128;15.422;2023-03-05T08:56:15;16.48;;;13.07;;
23868;SDS011;12115;47.128;15.422;2023-03-05T08:58:42;21.00;;;13.77;;
23868;SDS011;12115;47.128;15.422;2023-03-05T09:01:11;18.35;;;14.48;;
23868;SDS011;12115;47.128;15.422;2023-03-05T09:03:39;17.00;;;13.75;;
23868;SDS011;12115;47.128;15.422;2023-03-05T09:06:10;15.63;;;13.95;;
23868;SDS011;12115;47.128;15.422;2023-03-05T09:08:38;18.13;;;13.65;;
23868;SDS011;12115;47.128;15.422;2023-03-05T09:11:06;20.60;;;14.50;;
23868;SDS011;12115;47.128;15.422;2023-03-05T09:13:35;17.75;;;13.63;;
23868;SDS011;12115;47.128;15.422;2023-03-05T09:16:04;20.88;;;15.50;;
23868;SDS011;12115;47.128;15.422;2023-03-05T09:18:33;21.73;;;15.13;;
23868;SDS011;12115;47.128;15.422;2023-03-05T09:21:03;19.08;;;15.23;;
23868;SDS011;12115;47.128;15.422;2023-03-05T09:23:31;19.05;;;14.35;;
23868;SDS011;12115;47.128;15.422;2023-03-05T09:25:58;20.55;;;15.85;;
23868;SDS011;12115;47.128;15.422;2023-03-05T09:28:26;19.73;;;14.93;;
23868;SDS011;12115;47.128;15.422;2023-03-05T09:30:53;20.25;;;15.35;;
23868;SDS011;12115;47.128;15.422;2023-03-05T09:33:21;20.92;;;16.35;;
23868;SDS011;12115;47.128;15.422;2023-03-05T09:35:48;20.83;;;15.15;;
23868;SDS011;12115;47.128;15.422;2023-03-05T09:38:16;22.20;;;16.58;;
23868;SDS011;12115;47.128;15.422;2023-03-05T09:46:48;20.00;;;16.48;;
23868;SDS011;12115;47.128;15.422;2023-03-05T09:55:12;24.87;;;15.63;;
23868;SDS011;12115;47.128;15.422;2023-03-05T09:58:05;28.00;;;16.02;;
23868;SDS011;12115;47.128;15.422;2023-03-05T10:00:48;22.42;;;15.40;;
23868;SDS011;12115;47.128;15.422;2023-03-05T10:03:24;21.40;;;14.70;;
23868;SDS011;12115;47.128;15.422;2023-03-05T10:11:58;22.08;;;13.88;;
23868;SDS011;12115;47.128;15.422;2023-03-05T10:14:53;21.98;;;13.90;;
23868;SDS011;12115;47.128;15.422;2023-03-05T10:29:00;20.25;;;14.48;;
23868;SDS011;12115;47.128;15.422;2023-03-05T10:34:19;16.83;;;12.85;;
23868;SDS011;12115;47.128;15.422;2023-03-05T10:43:03;17.77;;;12.07;;
23868;SDS011;12115;47.128;15.422;2023-03-05T10:45:44;21.67;;;12.35;;
23868;SDS011;12115;47.128;15.422;2023-03-05T10:48:22;21.58;;;13.00;;
23868;SDS011;12115;47.128;15.422;2023-03-05T10:56:26;17.58;;;12.40;;
23868;SDS011;12115;47.128;15.422;2023-03-05T10:58:54;17.85;;;13.10;;
23868;SDS011;12115;47.128;15.422;2023-03-05T11:01:23;17.90;;;12.60;;
23868;SDS011;12115;47.128;15.422;2023-03-05T11:03:59;19.13;;;12.52;;
23868;SDS011;12115;47.128;15.422;2023-03-05T11:06:39;14.60;;;11.52;;
23868;SDS011;12115;47.128;15.422;2023-03-05T11:11:42;19.65;;;12.80;;
23868;SDS011;12115;47.128;15.422;2023-03-05T11:14:24;17.63;;;12.63;;
23868;SDS011;12115;47.128;15.422;2023-03-05T11:16:57;18.73;;;12.55;;
23868;SDS011;12115;47.128;15.422;2023-03-05T11:19:33;18.67;;;13.15;;
23868;SDS011;12115;47.128;15.422;2023-03-05T11:22:13;21.50;;;13.27;;
23868;SDS011;12115;47.128;15.422;2023-03-05T11:27:41;18.27;;;13.23;;
23868;SDS011;12115;47.128;15.422;2023-03-05T11:30:21;16.35;;;12.07;;
23868;SDS011;12115;47.128;15.422;2023-03-05T11:35:48;17.45;;;12.30;;
23868;SDS011;12115;47.128;15.422;2023-03-05T11:38:19;17.58;;;13.13;;
23868;SDS011;12115;47.128;15.422;2023-03-05T11:40:54;22.08;;;12.98;;
23868;SDS011;12115;47.128;15.422;2023-03-05T11:43:23;19.27;;;13.52;;
23868;SDS011;12115;47.128;15.422;2023-03-05T11:45:58;19.55;;;13.90;;
23868;SDS011;12115;47.128;15.422;2023-03-05T11:48:35;20.52;;;12.85;;
23868;SDS011;12115;47.128;15.422;2023-03-05T11:51:12;18.42;;;12.85;;
23868;SDS011;12115;47.128;15.422;2023-03-05T11:53:59;18.65;;;12.20;;
23868;SDS011;12115;47.128;15.422;2023-03-05T11:56:37;17.65;;;12.85;;
23868;SDS011;12115;47.128;15.422;2023-03-05T11:59:25;18.20;;;13.13;;
23868;SDS011;12115;47.128;15.422;2023-03-05T12:04:25;18.13;;;12.10;;
23868;SDS011;12115;47.128;15.422;2023-03-05T12:06:57;19.92;;;13.68;;
23868;SDS011;12115;47.128;15.422;2023-03-05T12:17:38;20.05;;;12.20;;
23868;SDS011;12115;47.128;15.422;2023-03-05T12:20:24;17.73;;;12.98;;
23868;SDS011;12115;47.128;15.422;2023-03-05T12:23:15;18.27;;;12.60;;
23868;SDS011;12115;47.128;15.422;2023-03-05T12:25:47;20.23;;;13.13;;
23868;SDS011;12115;47.128;15.422;2023-03-05T12:31:27;18.23;;;12.48;;
23868;SDS011;12115;47.128;15.422;2023-03-05T12:34:50;16.70;;;12.10;;
23868;SDS011;12115;47.128;15.422;2023-03-05T12:37:11;20.83;;;13.18;;
23868;SDS011;12115;47.128;15.422;2023-03-05T12:42:41;17.83;;;12.57;;
23868;SDS011;12115;47.128;15.422;2023-03-05T12:45:23;19.30;;;11.95;;
23868;SDS011;12115;47.128;15.422;2023-03-05T13:03:33;21.23;;;12.75;;
23868;SDS011;12115;47.128;15.422;2023-03-05T13:06:05;20.40;;;12.52;;
23868;SDS011;12115;47.128;15.422;2023-03-05T13:08:35;17.45;;;12.63;;
23868;SDS011;12115;47.128;15.422;2023-03-05T13:11:08;17.05;;;11.90;;
23868;SDS011;12115;47.128;15.422;2023-03-05T13:13:47;18.23;;;11.75;;
23868;SDS011;12115;47.128;15.422;2023-03-05T13:18:52;18.75;;;12.38;;
23868;SDS011;12115;47.128;15.422;2023-03-05T13:21:31;21.77;;;13.05;;
23868;SDS011;12115;47.128;15.422;2023-03-05T13:24:01;20.45;;;11.60;;
23868;SDS011;12115;47.128;15.422;2023-03-05T13:26:37;18.75;;;12.35;;
23868;SDS011;12115;47.128;15.422;2023-03-05T13:29:20;20.70;;;11.93;;
23868;SDS011;12115;47.128;15.422;2023-03-05T13:31:55;17.67;;;11.77;;
23868;SDS011;12115;47.128;15.422;2023-03-05T13:34:28;16.58;;;11.75;;
23868;SDS011;12115;47.128;15.422;2023-03-05T13:37:17;19.08;;;12.30;;
23868;SDS011;12115;47.128;15.422;2023-03-05T13:39:53;18.45;;;11.65;;
23868;SDS011;12115;47.128;15.422;2023-03-05T13:42:22;16.73;;;12.18;;
23868;SDS011;12115;47.128;15.422;2023-03-05T13:45:03;17.95;;;11.60;;
23868;SDS011;12115;47.128;15.422;2023-03-05T13:47:33;17.65;;;12.32;;
23868;SDS011;12115;47.128;15.422;2023-03-05T13:50:05;15.93;;;11.53;;
23868;SDS011;12115;47.128;15.422;2023-03-05T13:52:37;19.27;;;11.15;;
23868;SDS011;12115;47.128;15.422;2023-03-05T13:55:12;22.90;;;12.77;;
23868;SDS011;12115;47.128;15.422;2023-03-05T13:57:43;18.75;;;11.98;;
23868;SDS011;12115;47.128;15.422;2023-03-05T14:00:23;17.63;;;11.77;;
23868;SDS011;12115;47.128;15.422;2023-03-05T14:03:06;16.85;;;11.23;;
23868;SDS011;12115;47.128;15.422;2023-03-05T14:05:41;18.60;;;11.50;;
23868;SDS011;12115;47.128;15.422;2023-03-05T14:08:21;17.50;;;12.52;;
23868;SDS011;12115;47.128;15.422;2023-03-05T14:10:53;16.00;;;10.68;;
23868;SDS011;12115;47.128;15.422;2023-03-05T14:13:23;16.83;;;11.23;;
23868;SDS011;12115;47.128;15.422;2023-03-05T14:16:11;16.30;;;11.32;;
23868;SDS011;12115;47.128;15.422;2023-03-05T14:18:56;18.02;;;10.70;;
23868;SDS011;12115;47.128;15.422;2023-03-05T14:21:43;16.05;;;10.65;;
23868;SDS011;12115;47.128;15.422;2023-03-05T14:24:21;17.13;;;10.88;;
23868;SDS011;12115;47.128;15.422;2023-03-05T14:26:52;16.58;;;11.35;;
23868;SDS011;12115;47.128;15.422;2023-03-05T14:29:25;15.65;;;11.20;;
23868;SDS011;12115;47.128;15.422;2023-03-05T14:37:04;15.95;;;11.85;;
23868;SDS011;12115;47.128;15.422;2023-03-05T14:39:57;17.60;;;11.95;;
23868;SDS011;12115;47.128;15.422;2023-03-05T14:45:32;18.73;;;10.98;;
23868;SDS011;12115;47.128;15.422;2023-03-05T14:48:02;17.20;;;9.85;;
23868;SDS011;12115;47.128;15.422;2023-03-05T14:50:36;16.10;;;11.15;;
23868;SDS011;12115;47.128;15.422;2023-03-05T14:53:11;17.75;;;11.70;;
23868;SDS011;12115;47.128;15.422;2023-03-05T14:55:50;15.50;;;11.35;;
23868;SDS011;12115;47.128;15.422;2023-03-05T14:58:24;15.63;;;10.38;;
23868;SDS011;12115;47.128;15.422;2023-03-05T15:00:55;19.83;;;11.40;;
23868;SDS011;12115;47.128;15.422;2023-03-05T15:03:23;17.33;;;11.10;;
23868;SDS011;12115;47.128;15.422;2023-03-05T15:05:55;22.13;;;12.48;;
23868;SDS011;12115;47.128;15.422;2023-03-05T15:08:25;22.88;;;12.95;;
23868;SDS011;12115;47.128;15.422;2023-03-05T15:13:24;18.92;;;12.30;;
23868;SDS011;12115;47.128;15.422;2023-03-05T15:15:54;16.90;;;11.15;;
23868;SDS011;12115;47.128;15.422;2023-03-05T15:18:24;17.80;;;10.95;;
23868;SDS011;12115;47.128;15.422;2023-03-05T15:20:52;16.08;;;10.40;;
23868;SDS011;12115;47.128;15.422;2023-03-05T15:23:22;20.25;;;10.82;;
23868;SDS011;12115;47.128;15.422;2023-03-05T15:25:51;17.15;;;11.32;;
23868;SDS011;12115;47.128;15.422;2023-03-05T15:28:19;19.33;;;11.30;;
23868;SDS011;12115;47.128;15.422;2023-03-05T15:30:49;17.77;;;11.00;;
23868;SDS011;12115;47.128;15.422;2023-03-05T15:33:17;17.00;;;11.68;;
23868;SDS011;12115;47.128;15.422;2023-03-05T15:35:46;18.90;;;11.20;;
23868;SDS011;12115;47.128;15.422;2023-03-05T15:38:14;15.07;;;11.85;;
23868;SDS011;12115;47.128;15.422;2023-03-05T15:40:43;18.48;;;12.52;;
23868;SDS011;12115;47.128;15.422;2023-03-05T15:43:13;17.58;;;12.18;;
23868;SDS011;12115;47.128;15.422;2023-03-05T15:45:42;17.88;;;11.68;;
23868;SDS011;12115;47.128;15.422;2023-03-05T15:48:12;19.02;;;13.13;;
23868;SDS011;12115;47.128;15.422;2023-03-05T15:50:41;21.75;;;12.88;;
23868;SDS011;12115;47.128;15.422;2023-03-05T15:53:12;21.60;;;13.23;;
23868;SDS011;12115;47.128;15.422;2023-03-05T15:55:42;22.60;;;14.63;;
23868;SDS011;12115;47.128;15.422;2023-03-05T15:58:14;21.02;;;13.10;;
23868;SDS011;12115;47.128;15.422;2023-03-05T16:00:43;19.17;;;12.70;;
23868;SDS011;12115;47.128;15.422;2023-03-05T16:03:13;19.60;;;13.48;;
23868;SDS011;12115;47.128;15.422;2023-03-05T16:05:41;21.50;;;13.63;;
23868;SDS011;12115;47.128;15.422;2023-03-05T16:08:12;19.55;;;12.57;;
23868;SDS011;12115;47.128;15.422;2023-03-05T16:10:41;21.52;;;12.98;;
23868;SDS011;12115;47.128;15.422;2023-03-05T16:13:10;25.58;;;14.30;;
23868;SDS011;12115;47.128;15.422;2023-03-05T16:15:43;17.30;;;12.98;;